Wykagyl, New York
Current Conditions -  °F | °C
As of 2:56 PM on Saturday 25 Oct 2014 (Local Time) from KHPN Reporting Station
Few Clouds Few Clouds  
Wind Chill: 65°   Ceiling: Unl
Heat Index: 65°   Visibility: 10mi
Dew Point: 41°   Wind: 10mph
Humidity: 42%   Direction: 290°WNW
Pressure: 29.69"   Gusts: NA
Location:  40.95°N, 73.79°W
Report Text: KHPN 251856Z 29009KT 10SM FEW080 18/05 A2969 RMK AO2 SLP054 T01830050
Loading
Personal Weather Stations






























Interactive Weather Map New forecast layout! Learn more

10-Day Weather Forecast

Advertisements
Track Severe Weather on mobile